Time;durP1;ratioP1;P1;durP2;ratioP2;P2;SDS_P1;SDS_P2;PMS_P1;PMS_P2;Temp;Humidity;BMP_temperature;BMP_pressure;BME280_temperature;BME280_humidity;BME280_pressure;Samples;Min_cycle;Max_cycle;Signal;HPM_P1;HPM_P2
2022/03/11 00:00:40;;;;;;;6.95;3.65;;;;;;;-1.01;38.77;100822.22;4470152;32;35069;-73
2022/03/11 00:03:10;;;;;;;8.25;3.47;;;;;;;-1.15;39.41;100823.97;4456776;32;34477;-72
2022/03/11 00:05:40;;;;;;;9.90;4.47;;;;;;;-0.88;38.40;100828.06;4456924;32;32615;-73
2022/03/11 00:08:08;;;;;;;26.10;12.88;;;;;;;-1.02;38.54;100827.25;4470592;32;33935;-73
2022/03/11 00:10:36;;;;;;;7.87;3.72;;;;;;;-1.21;39.24;100832.94;4470903;32;35816;-73
2022/03/11 00:13:04;;;;;;;11.55;4.82;;;;;;;-0.85;38.32;100836.78;4470563;32;35075;-72
2022/03/11 00:15:32;;;;;;;10.05;5.05;;;;;;;-1.00;38.83;100835.91;4472744;32;33669;-72
2022/03/11 00:18:00;;;;;;;10.40;4.53;;;;;;;-0.42;37.61;100828.19;4470557;32;33952;-73
2022/03/11 00:20:28;;;;;;;7.53;4.10;;;;;;;-0.56;38.00;100832.50;4463563;32;34860;-74
2022/03/11 00:22:57;;;;;;;4.43;3.03;;;;;;;-0.83;37.73;100831.75;4486110;32;34374;-72
2022/03/11 00:25:25;;;;;;;8.80;4.35;;;;;;;-0.52;37.45;100829.31;4477966;32;33358;-71
2022/03/11 00:27:53;;;;;;;5.95;3.30;;;;;;;-0.60;37.36;100831.47;4470520;32;33616;-72
2022/03/11 00:30:20;;;;;;;8.52;4.70;;;;;;;-0.73;37.43;100828.97;4470080;32;35119;-72
2022/03/11 00:32:48;;;;;;;10.25;3.67;;;;;;;-1.19;38.41;100828.78;4470320;32;34563;-73
2022/03/11 00:35:16;;;;;;;6.25;4.18;;;;;;;-0.78;37.77;100835.47;4469986;32;33450;-74
2022/03/11 00:37:44;;;;;;;4.50;3.03;;;;;;;-0.59;37.14;100825.53;4455933;32;34806;-73
2022/03/11 00:40:13;;;;;;;4.90;3.30;;;;;;;-0.87;37.52;100827.28;4470000;32;35055;-73
2022/03/11 00:42:40;;;;;;;5.40;3.12;;;;;;;-1.20;38.59;100824.47;4455444;32;35247;-72
2022/03/11 00:45:09;;;;;;;7.62;4.28;;;;;;;-0.62;37.48;100825.38;4456155;32;34320;-75
2022/03/11 00:47:37;;;;;;;7.75;3.90;;;;;;;-1.16;38.37;100821.31;4456388;32;34736;-73
2022/03/11 00:50:05;;;;;;;7.82;3.92;;;;;;;-1.12;38.45;100810.47;4469927;32;35037;-72
2022/03/11 00:52:33;;;;;;;5.25;3.70;;;;;;;-0.79;37.44;100818.38;4456313;32;35244;-73
2022/03/11 00:55:04;;;;;;;7.57;3.47;;;;;;;-0.84;37.51;100814.69;4469751;32;34133;-73
2022/03/11 00:57:32;;;;;;;7.50;3.58;;;;;;;-1.22;38.54;100815.81;4466383;32;34350;-73
2022/03/11 00:59:59;;;;;;;7.85;4.50;;;;;;;-1.28;38.58;100810.34;4468060;32;35151;-72
2022/03/11 01:02:32;;;;;;;6.05;3.72;;;;;;;-1.03;38.09;100813.56;4470291;32;34477;-73
2022/03/11 01:05:02;;;;;;;8.32;3.47;;;;;;;-0.80;37.86;100816.59;4455967;32;33444;-74
2022/03/11 01:07:31;;;;;;;8.20;3.95;;;;;;;-0.90;37.68;100811.75;4456233;32;34883;-73
2022/03/11 01:09:59;;;;;;;7.37;4.00;;;;;;;-0.90;38.08;100820.31;4457589;32;34891;-72
2022/03/11 01:12:27;;;;;;;6.90;3.35;;;;;;;-0.82;37.68;100810.53;4456600;32;34350;-73
2022/03/11 01:14:54;;;;;;;7.70;4.10;;;;;;;-1.07;38.06;100811.62;4469664;32;33491;-73
2022/03/11 01:17:22;;;;;;;7.60;4.15;;;;;;;-1.27;38.84;100812.09;4469479;32;33974;-72
2022/03/11 01:19:50;;;;;;;8.57;3.92;;;;;;;-1.10;38.40;100806.34;4442755;32;33588;-72
2022/03/11 01:22:18;;;;;;;19.83;5.53;;;;;;;-1.65;39.58;100805.56;4469934;32;35161;-73
2022/03/11 01:24:46;;;;;;;6.62;3.75;;;;;;;-1.12;38.27;100802.81;4469572;32;33439;-72
2022/03/11 01:27:14;;;;;;;7.57;3.85;;;;;;;-1.12;38.29;100807.91;4470160;32;34724;-72
2022/03/11 01:29:42;;;;;;;11.55;4.60;;;;;;;-1.14;38.66;100814.62;4469429;32;35199;-73
2022/03/11 01:32:10;;;;;;;8.88;3.62;;;;;;;-1.49;39.12;100810.81;4469961;32;35029;-72
2022/03/11 01:34:37;;;;;;;5.00;3.20;;;;;;;-1.76;39.70;100805.75;4469349;32;33631;-70
2022/03/11 01:37:06;;;;;;;5.07;3.30;;;;;;;-1.54;39.23;100801.97;4469683;32;34021;-73
2022/03/11 01:39:34;;;;;;;6.40;3.47;;;;;;;-1.91;40.44;100804.78;4455675;32;34916;-71
2022/03/11 01:42:02;;;;;;;4.40;2.80;;;;;;;-1.37;39.34;100798.78;4470310;32;35310;-72
2022/03/11 01:44:30;;;;;;;4.82;3.28;;;;;;;-1.45;39.37;100797.41;4469904;32;32868;-72
2022/03/11 01:46:57;;;;;;;5.70;3.70;;;;;;;-1.40;39.13;100796.03;4469173;32;34049;-73
2022/03/11 01:49:25;;;;;;;5.53;3.42;;;;;;;-1.21;38.64;100799.72;4455554;32;35807;-73
2022/03/11 01:51:53;;;;;;;7.37;3.55;;;;;;;-1.03;38.09;100808.47;4468968;32;35249;-71
2022/03/11 01:54:21;;;;;;;7.82;3.97;;;;;;;-1.41;38.82;100804.50;4471501;32;32734;-72
2022/03/11 01:56:49;;;;;;;7.00;3.12;;;;;;;-1.07;38.15;100801.41;4469965;32;33862;-73
2022/03/11 01:59:17;;;;;;;16.08;6.75;;;;;;;-1.47;38.81;100799.00;4457496;32;35058;-73
2022/03/11 02:01:45;;;;;;;6.03;4.00;;;;;;;-1.50;39.17;100795.38;4471092;32;34380;-74
2022/03/11 02:04:13;;;;;;;11.00;3.58;;;;;;;-1.45;38.82;100792.31;4471488;32;33420;-75
2022/03/11 02:06:41;;;;;;;6.32;3.30;;;;;;;-1.76;39.33;100803.22;4470992;32;33826;-72
2022/03/11 02:09:10;;;;;;;6.43;3.37;;;;;;;-1.17;38.22;100793.97;4471424;32;35820;-73
2022/03/11 02:11:38;;;;;;;6.22;3.28;;;;;;;-1.51;38.83;100791.94;4473748;32;34357;-72
2022/03/11 02:14:05;;;;;;;14.15;6.82;;;;;;;-1.55;39.29;100792.56;4471543;32;33621;-72
2022/03/11 02:16:39;;;;;;;8.10;4.25;;;;;;;-1.65;39.54;100792.78;4455807;32;34192;-73
2022/03/11 02:19:08;;;;;;;6.72;3.10;;;;;;;-1.55;39.14;100790.00;4473798;32;35958;-74
2022/03/11 02:21:47;;;;;;;10.18;5.15;;;;;;;-1.39;38.63;100800.34;4472385;32;35179;-73
2022/03/11 02:24:16;;;;;;;7.07;3.58;;;;;;;-1.40;38.57;100801.12;4460188;32;32011;-72
2022/03/11 02:26:44;;;;;;;7.10;3.87;;;;;;;-1.53;38.55;100809.72;4470350;31;33777;-74
2022/03/11 02:29:12;;;;;;;14.27;5.15;;;;;;;-1.48;38.91;100804.00;4472664;32;35830;-76
2022/03/11 02:31:40;;;;;;;12.45;4.93;;;;;;;-1.89;39.98;100803.22;4467807;32;34090;-72
2022/03/11 02:34:08;;;;;;;8.13;3.35;;;;;;;-1.75;39.76;100807.53;4465328;32;33335;-75
2022/03/11 02:36:35;;;;;;;8.43;4.45;;;;;;;-1.77;39.72;100798.88;4473839;32;33719;-71
2022/03/11 02:39:06;;;;;;;6.40;3.75;;;;;;;-1.41;38.65;100791.72;4471097;32;35124;-72
2022/03/11 02:41:34;;;;;;;4.80;3.30;;;;;;;-1.45;38.88;100794.88;4471016;32;35171;-71
2022/03/11 02:44:01;;;;;;;6.72;3.60;;;;;;;-1.19;38.07;100798.12;4457077;32;33425;-71
2022/03/11 02:46:29;;;;;;;17.25;6.37;;;;;;;-1.65;38.76;100795.34;4471611;32;34007;-72
2022/03/11 02:48:57;;;;;;;8.65;5.57;;;;;;;-1.70;39.08;100799.28;4470279;32;34838;-72
2022/03/11 02:51:25;;;;;;;9.75;4.20;;;;;;;-1.70;39.10;100797.59;4457093;32;35087;-71
2022/03/11 02:53:53;;;;;;;7.82;4.12;;;;;;;-1.98;39.76;100793.31;4457044;32;33360;-72
2022/03/11 02:56:21;;;;;;;13.35;4.75;;;;;;;-2.10;40.15;100808.75;4479343;32;33786;-71
2022/03/11 02:58:49;;;;;;;6.95;4.12;;;;;;;-1.62;39.43;100803.19;4465126;32;35160;-71
2022/03/11 03:01:17;;;;;;;7.82;3.42;;;;;;;-1.50;40.54;100798.84;4466091;32;35152;-71
2022/03/11 03:03:46;;;;;;;8.07;3.90;;;;;;;-1.72;40.91;100801.72;4460269;32;34279;-72
2022/03/11 03:06:15;;;;;;;8.85;3.72;;;;;;;-2.77;42.21;100799.25;4470117;32;34030;-71
2022/03/11 03:08:43;;;;;;;3.75;3.08;;;;;;;-3.08;43.39;100798.09;4477129;32;35036;-71
2022/03/11 03:11:10;;;;;;;8.63;4.30;;;;;;;-2.94;43.93;100810.91;4474805;32;35151;-71
2022/03/11 03:13:38;;;;;;;6.97;3.72;;;;;;;-3.16;42.86;100803.47;4456927;32;33406;-70
2022/03/11 03:16:06;;;;;;;5.70;4.18;;;;;;;-2.71;42.09;100805.66;4470489;32;33809;-75
2022/03/11 03:18:34;;;;;;;4.85;3.45;;;;;;;-3.30;43.05;100800.88;4470676;32;34626;-75
2022/03/11 03:21:03;;;;;;;6.55;3.75;;;;;;;-2.88;42.66;100796.91;4449666;32;33671;-75
2022/03/11 03:23:31;;;;;;;11.35;4.78;;;;;;;-3.23;43.31;100799.59;4486379;32;33507;-74
2022/03/11 03:26:01;;;;;;;12.18;5.00;;;;;;;-3.62;44.33;100807.19;4479569;32;34671;-75
2022/03/11 03:28:31;;;;;;;7.97;3.45;;;;;;;-3.52;43.83;100802.72;4470690;32;35167;-75
2022/03/11 03:30:59;;;;;;;4.90;3.53;;;;;;;-4.20;46.66;100810.69;4475623;32;35183;-74
2022/03/11 03:33:26;;;;;;;4.93;3.37;;;;;;;-4.71;48.18;100801.03;4486175;32;33574;-70
2022/03/11 03:35:54;;;;;;;7.00;4.05;;;;;;;-4.22;46.57;100791.88;4470898;32;34546;-71
2022/03/11 03:38:24;;;;;;;7.80;4.28;;;;;;;-4.13;46.49;100792.56;4467788;32;34208;-71
2022/03/11 03:40:52;;;;;;;10.68;4.72;;;;;;;-4.11;46.52;100798.66;4470162;32;35110;-71
2022/03/11 03:43:20;;;;;;;8.02;4.15;;;;;;;-4.04;46.32;100790.66;4456561;32;34370;-74
2022/03/11 03:45:48;;;;;;;6.03;3.62;;;;;;;-3.58;44.58;100792.09;4444703;32;33963;-71
2022/03/11 03:48:15;;;;;;;9.50;4.35;;;;;;;-3.82;44.95;100795.59;4470185;32;35103;-70
2022/03/11 03:50:43;;;;;;;10.98;5.57;;;;;;;-4.01;45.72;100790.91;4469416;32;34412;-70
2022/03/11 03:53:11;;;;;;;5.43;3.80;;;;;;;-4.04;45.94;100789.75;4470640;32;33515;-71
2022/03/11 03:55:39;;;;;;;5.40;4.30;;;;;;;-3.68;45.04;100795.69;4456258;32;34758;-75
2022/03/11 03:58:07;;;;;;;8.43;3.78;;;;;;;-3.72;44.80;100797.13;4470011;32;35032;-75
2022/03/11 04:00:35;;;;;;;9.57;3.65;;;;;;;-3.82;45.54;100792.19;4456018;32;33963;-75
2022/03/11 04:03:04;;;;;;;7.12;4.18;;;;;;;-3.08;44.06;100807.44;4456602;32;34398;-74
2022/03/11 04:05:32;;;;;;;7.43;3.78;;;;;;;-4.20;45.57;100811.59;4471116;32;34016;-70
2022/03/11 04:07:59;;;;;;;7.20;3.90;;;;;;;-4.43;47.07;100803.94;4485971;32;34997;-74
2022/03/11 04:10:27;;;;;;;14.68;5.53;;;;;;;-4.17;46.77;100803.28;4484895;32;35337;-70
2022/03/11 04:12:56;;;;;;;11.38;4.30;;;;;;;-4.23;46.45;100805.41;4486020;32;34503;-75
2022/03/11 04:15:23;;;;;;;6.72;4.03;;;;;;;-4.03;46.68;100807.69;4484785;32;33901;-75
2022/03/11 04:17:51;;;;;;;6.55;3.83;;;;;;;-3.14;44.68;100812.09;4471942;32;36001;-75
2022/03/11 04:20:19;;;;;;;9.20;4.20;;;;;;;-3.89;46.02;100816.31;4464142;32;34082;-75
2022/03/11 04:22:47;;;;;;;6.00;3.78;;;;;;;-3.94;47.00;100817.63;4470319;32;33430;-71
2022/03/11 04:25:15;;;;;;;14.07;5.80;;;;;;;-5.06;48.85;100819.66;4465720;32;33821;-71
2022/03/11 04:27:43;;;;;;;13.52;6.32;;;;;;;-4.25;46.94;100819.66;4471991;32;35914;-71
2022/03/11 04:30:11;;;;;;;8.02;4.62;;;;;;;-4.58;47.73;100826.59;4461728;32;34335;-71
2022/03/11 04:32:39;;;;;;;8.77;4.47;;;;;;;-3.86;46.61;100819.06;4470076;32;34349;-71
2022/03/11 04:35:07;;;;;;;7.22;3.95;;;;;;;-4.04;46.55;100816.13;4469819;32;33919;-71
2022/03/11 04:37:35;;;;;;;12.60;4.65;;;;;;;-4.44;48.21;100828.47;4470343;32;35017;-72
2022/03/11 04:40:05;;;;;;;10.32;5.47;;;;;;;-4.52;47.59;100824.47;4478258;32;35315;-71
2022/03/11 04:42:34;;;;;;;9.82;4.30;;;;;;;-4.70;48.30;100829.09;4485989;32;33483;-72
2022/03/11 04:45:04;;;;;;;9.73;4.90;;;;;;;-5.65;50.44;100827.84;4462770;32;33732;-73
2022/03/11 04:47:31;;;;;;;9.43;4.55;;;;;;;-5.20;49.21;100824.56;4469619;32;34996;-71
2022/03/11 04:49:59;;;;;;;9.63;4.07;;;;;;;-4.89;48.90;100828.50;4469346;32;34305;-71
2022/03/11 04:52:27;;;;;;;5.87;4.12;;;;;;;-4.47;47.53;100838.41;4456186;32;33444;-72
2022/03/11 04:54:55;;;;;;;9.23;4.20;;;;;;;-4.81;48.01;100841.00;4469728;32;34663;-70
2022/03/11 04:57:23;;;;;;;6.40;4.12;;;;;;;-4.43;46.63;100832.81;4469929;32;35234;-71
2022/03/11 04:59:50;;;;;;;7.30;4.68;;;;;;;-4.62;47.28;100837.31;4461512;32;34544;-72
2022/03/11 05:02:26;;;;;;;4.72;3.37;;;;;;;-4.84;47.35;100834.81;4485755;32;34489;-75
2022/03/11 05:04:54;;;;;;;5.78;3.20;;;;;;;-5.02;48.66;100840.28;4470258;32;33850;-71
2022/03/11 05:07:22;;;;;;;13.38;5.35;;;;;;;-5.43;50.29;100844.75;4458971;32;34957;-74
2022/03/11 05:09:50;;;;;;;3.72;2.78;;;;;;;-5.54;49.61;100846.44;4475987;32;35221;-72
2022/03/11 05:12:18;;;;;;;7.78;4.15;;;;;;;-4.93;48.75;100850.25;4485557;32;33563;-72
2022/03/11 05:14:49;;;;;;;7.70;3.55;;;;;;;-5.01;48.70;100842.06;4479091;32;33668;-71
2022/03/11 05:17:17;;;;;;;8.27;4.15;;;;;;;-5.40;49.49;100850.06;4468787;32;35269;-72
2022/03/11 05:19:45;;;;;;;8.55;4.45;;;;;;;-5.83;49.33;100847.59;4471956;32;35171;-71
2022/03/11 05:22:13;;;;;;;38.80;7.80;;;;;;;-5.82;50.33;100844.31;4455764;32;34139;-72
2022/03/11 05:24:42;;;;;;;6.37;4.68;;;;;;;-5.31;49.28;100840.63;4469329;32;33920;-71
2022/03/11 05:27:10;;;;;;;29.08;5.12;;;;;;;-5.42;49.36;100841.44;4454794;32;35824;-68
2022/03/11 05:29:39;;;;;;;5.15;3.50;;;;;;;-5.19;49.71;100849.19;4475853;32;34872;-71
2022/03/11 05:32:08;;;;;;;7.20;3.90;;;;;;;-5.37;50.19;100851.19;4474412;32;33504;-71
2022/03/11 05:34:39;;;;;;;5.62;4.32;;;;;;;-5.53;50.52;100846.56;4480252;32;34100;-72
2022/03/11 05:37:08;;;;;;;4.82;2.70;;;;;;;-5.75;51.86;100868.53;4470808;32;35191;-73
2022/03/11 05:39:36;;;;;;;6.18;3.67;;;;;;;-5.72;51.64;100861.13;4470547;32;34168;-73
2022/03/11 05:42:05;;;;;;;8.90;4.75;;;;;;;-5.44;51.78;100863.28;4484637;32;33462;-70
2022/03/11 05:44:33;;;;;;;6.03;3.42;;;;;;;-4.63;50.14;100860.94;4457904;32;33962;-73
2022/03/11 05:47:01;;;;;;;7.57;4.43;;;;;;;-2.29;45.59;100859.38;4457326;32;35687;-72
2022/03/11 05:49:28;;;;;;;7.28;4.00;;;;;;;-0.54;40.68;100858.19;4481015;32;34430;-74
2022/03/11 05:51:57;;;;;;;7.62;4.18;;;;;;;0.64;38.77;100853.66;4484457;32;33756;-73
2022/03/11 05:54:24;;;;;;;4.47;3.42;;;;;;;2.43;34.20;100851.44;4470492;32;34861;-72
2022/03/11 05:56:55;;;;;;;7.20;4.03;;;;;;;1.67;37.75;100856.38;4484448;32;34290;-73
2022/03/11 05:59:23;;;;;;;7.68;4.20;;;;;;;3.05;34.29;100859.38;4470084;32;34600;-72
2022/03/11 06:01:51;;;;;;;9.00;4.50;;;;;;;4.09;31.99;100855.13;4470626;32;34233;-73
2022/03/11 06:04:19;;;;;;;12.13;4.95;;;;;;;6.95;28.09;100861.47;4470324;32;34014;-72
2022/03/11 06:06:47;;;;;;;7.62;4.72;;;;;;;4.73;31.51;100872.25;4469134;31;35917;-74
2022/03/11 06:09:16;;;;;;;11.05;4.70;;;;;;;5.40;31.62;100878.09;4454465;32;35335;-73
2022/03/11 06:11:44;;;;;;;14.40;5.50;;;;;;;3.10;33.31;100875.03;4469687;32;34100;-74
2022/03/11 06:14:12;;;;;;;8.55;4.28;;;;;;;2.31;36.07;100884.28;4478850;32;33634;-76
2022/03/11 06:16:40;;;;;;;7.20;4.65;;;;;;;2.34;33.35;100869.03;4456320;32;36014;-74
2022/03/11 06:19:09;;;;;;;8.50;4.55;;;;;;;3.10;34.22;100881.03;4468854;32;35272;-75
2022/03/11 06:21:36;;;;;;;9.93;5.05;;;;;;;2.91;33.19;100883.63;4484902;32;33535;-73
2022/03/11 06:24:04;;;;;;;7.95;4.45;;;;;;;2.63;33.81;100882.38;4471244;32;33759;-75
2022/03/11 06:26:32;;;;;;;7.90;4.65;;;;;;;2.81;34.40;100885.78;4470728;32;35852;-78
2022/03/11 06:29:00;;;;;;;9.65;4.90;;;;;;;1.93;35.61;100891.06;4484600;32;34399;-75
2022/03/11 06:31:28;;;;;;;9.95;4.62;;;;;;;4.02;31.28;100883.19;4468374;32;32929;-75
2022/03/11 06:33:58;;;;;;;9.15;4.60;;;;;;;4.44;30.57;100893.47;4468896;32;33916;-75
2022/03/11 06:36:28;;;;;;;10.73;5.90;;;;;;;6.52;28.59;100878.31;4454922;32;35142;-74
2022/03/11 06:38:56;;;;;;;10.80;4.25;;;;;;;5.92;28.95;100883.28;4442491;32;33830;-74
2022/03/11 06:41:24;;;;;;;13.43;4.95;;;;;;;6.98;26.95;100879.66;4454867;32;33741;-74
2022/03/11 06:43:58;;;;;;;7.85;4.07;;;;;;;5.64;27.95;100885.78;4458097;32;33910;-75
2022/03/11 06:46:26;;;;;;;7.05;3.67;;;;;;;4.89;29.09;100886.59;4470642;32;35107;-73
2022/03/11 06:48:54;;;;;;;9.55;4.20;;;;;;;4.92;29.52;100883.25;4457235;32;35168;-74
2022/03/11 06:51:22;;;;;;;6.87;3.50;;;;;;;3.98;29.76;100883.06;4470747;32;33580;-74
2022/03/11 06:53:50;;;;;;;11.90;4.25;;;;;;;3.71;30.65;100889.69;4457236;32;34785;-75
2022/03/11 06:56:18;;;;;;;9.32;4.62;;;;;;;2.75;30.97;100897.47;4483540;32;34762;-73
2022/03/11 06:58:45;;;;;;;6.87;3.78;;;;;;;3.19;31.23;100888.28;4472605;32;34428;-75
2022/03/11 07:01:14;;;;;;;12.05;5.03;;;;;;;2.73;31.31;100909.38;4458860;32;33593;-74
2022/03/11 07:03:42;;;;;;;10.23;4.60;;;;;;;2.39;32.07;100898.41;4457226;32;34376;-75
2022/03/11 07:06:10;;;;;;;8.00;4.60;;;;;;;1.84;32.18;100899.19;4470594;32;35034;-74
2022/03/11 07:08:38;;;;;;;8.57;3.33;;;;;;;2.02;32.26;100904.34;4471073;32;34312;-74
2022/03/11 07:11:06;;;;;;;6.95;3.28;;;;;;;2.50;31.30;100895.47;4481657;32;33507;-74
2022/03/11 07:13:34;;;;;;;6.55;3.17;;;;;;;2.04;31.91;100900.16;4472716;32;33847;-74
2022/03/11 07:16:04;;;;;;;7.32;3.53;;;;;;;2.60;31.76;100895.97;4477669;32;35136;-74
2022/03/11 07:18:32;;;;;;;8.07;3.67;;;;;;;2.04;32.47;100907.00;4470850;32;35284;-75
2022/03/11 07:21:01;;;;;;;8.90;4.22;;;;;;;3.15;31.29;100900.16;4470546;32;33511;-74
2022/03/11 07:23:29;;;;;;;5.78;4.05;;;;;;;2.53;30.88;100896.50;4456881;32;33137;-74
2022/03/11 07:25:57;;;;;;;10.02;4.05;;;;;;;3.06;30.55;100909.16;4470833;32;35116;-76
2022/03/11 07:28:27;;;;;;;8.75;3.80;;;;;;;3.00;29.32;100905.50;4456991;32;34418;-74
2022/03/11 07:30:55;;;;;;;5.65;3.17;;;;;;;2.61;30.70;100905.44;4457074;32;34526;-74
2022/03/11 07:33:23;;;;;;;9.20;4.20;;;;;;;2.82;30.58;100905.56;4470061;32;34579;-74
2022/03/11 07:35:51;;;;;;;7.05;3.50;;;;;;;3.59;29.65;100902.91;4470289;32;34731;-75
2022/03/11 07:38:19;;;;;;;7.70;3.65;;;;;;;3.74;29.46;100898.41;4470153;32;35067;-75
2022/03/11 07:40:47;;;;;;;5.80;3.42;;;;;;;3.95;27.74;100913.88;4470882;32;33246;-76
2022/03/11 07:43:14;;;;;;;8.43;4.22;;;;;;;3.97;27.70;100901.03;4456882;32;33916;-75
2022/03/11 07:45:43;;;;;;;6.43;3.65;;;;;;;3.64;28.38;100905.69;4470379;32;36137;-74
2022/03/11 07:48:10;;;;;;;6.12;3.25;;;;;;;3.65;28.01;100912.59;4470720;32;34609;-74
2022/03/11 07:50:39;;;;;;;5.87;3.58;;;;;;;3.22;29.65;100909.91;4456483;32;33106;-77
2022/03/11 07:53:07;;;;;;;5.85;3.12;;;;;;;3.45;28.25;100915.19;4470768;32;33954;-76
2022/03/11 07:55:35;;;;;;;5.82;3.03;;;;;;;3.16;28.89;100909.66;4462102;32;36039;-74
2022/03/11 07:58:03;;;;;;;5.78;3.50;;;;;;;4.42;27.92;100902.84;4481244;32;35157;-74
2022/03/11 08:00:31;;;;;;;5.45;3.40;;;;;;;4.01;28.17;100907.19;4470203;32;33497;-74
2022/03/11 08:03:00;;;;;;;9.75;4.25;;;;;;;3.87;27.75;100907.53;4470966;32;34764;-74
2022/03/11 08:05:30;;;;;;;7.87;4.28;;;;;;;3.65;27.95;100917.72;4474887;32;35181;-75
2022/03/11 08:07:58;;;;;;;6.00;3.95;;;;;;;3.22;28.51;100922.78;4486319;32;34489;-75
2022/03/11 08:10:33;;;;;;;5.68;2.90;;;;;;;3.93;27.56;100918.06;4471224;32;33347;-76
2022/03/11 08:13:14;;;;;;;7.20;4.25;;;;;;;3.28;28.26;100921.28;4486356;32;34076;-75
2022/03/11 08:15:42;;;;;;;6.78;3.40;;;;;;;3.60;28.89;100910.69;4482051;32;34925;-74
2022/03/11 08:18:10;;;;;;;9.00;3.87;;;;;;;3.67;28.74;100910.94;4470447;32;34170;-75
2022/03/11 08:20:38;;;;;;;6.60;4.10;;;;;;;4.29;27.97;100914.34;4461491;32;33530;-74
2022/03/11 08:23:07;;;;;;;7.12;3.92;;;;;;;4.61;27.35;100909.59;4472217;32;33273;-74
2022/03/11 08:25:36;;;;;;;8.30;3.50;;;;;;;3.66;28.75;100914.34;4480556;32;34764;-74
2022/03/11 08:28:07;;;;;;;8.85;3.53;;;;;;;4.18;28.42;100908.75;4470403;32;34401;-76
2022/03/11 08:30:35;;;;;;;5.85;3.90;;;;;;;4.28;27.88;100905.75;4470552;32;33472;-74
2022/03/11 08:33:03;;;;;;;6.35;3.50;;;;;;;4.77;27.61;100904.19;4456264;32;34021;-75
2022/03/11 08:35:53;;;;;;;7.15;3.50;;;;;;;5.02;26.50;100910.28;4457847;32;35021;-75
2022/03/11 08:38:37;;;;;;;8.38;4.20;;;;;;;4.82;26.76;100896.62;4470600;32;34461;-75
2022/03/11 08:41:07;;;;;;;9.93;3.72;;;;;;;4.35;27.31;100900.00;4469808;32;33420;-74
2022/03/11 08:43:38;;;;;;;5.93;3.47;;;;;;;4.64;27.42;100891.63;4430959;32;32495;-76
2022/03/11 08:46:07;;;;;;;8.85;4.15;;;;;;;5.70;25.20;100887.72;4456351;32;35180;-74
2022/03/11 08:48:36;;;;;;;8.80;4.35;;;;;;;4.60;26.13;100885.50;4470315;32;34529;-74
2022/03/11 08:51:04;;;;;;;5.05;3.25;;;;;;;4.69;25.34;100891.00;4469920;32;33446;-74
2022/03/11 08:53:33;;;;;;;7.47;3.35;;;;;;;4.13;26.93;100881.91;4443697;32;34156;-74
2022/03/11 08:56:01;;;;;;;9.57;4.05;;;;;;;5.44;25.88;100879.94;4469243;32;35154;-75
2022/03/11 08:58:29;;;;;;;8.05;4.18;;;;;;;5.85;25.15;100872.72;4470220;32;34566;-75
2022/03/11 09:00:57;;;;;;;6.72;3.60;;;;;;;5.79;25.14;100882.88;4475303;32;34292;-74
2022/03/11 09:03:25;;;;;;;8.55;4.07;;;;;;;5.84;25.13;100876.16;4470863;32;34715;-75
2022/03/11 09:05:55;;;;;;;7.60;3.35;;;;;;;6.36;24.00;100870.91;4466484;32;34826;-76
2022/03/11 09:08:23;;;;;;;13.02;2.85;;;;;;;6.52;24.03;100872.25;4456112;32;34342;-75
2022/03/11 09:10:50;;;;;;;7.53;4.15;;;;;;;5.29;25.46;100882.00;4469788;32;33745;-77
2022/03/11 09:13:18;;;;;;;8.10;2.90;;;;;;;6.39;23.27;100882.25;4456906;32;33986;-75
2022/03/11 09:15:46;;;;;;;7.53;3.67;;;;;;;6.50;23.06;100869.62;4470917;32;35819;-75
2022/03/11 09:18:14;;;;;;;7.25;3.40;;;;;;;5.75;25.01;100868.06;4470071;32;34345;-78
2022/03/11 09:20:42;;;;;;;6.72;4.03;;;;;;;7.07;22.59;100865.22;4472495;32;33402;-75
2022/03/11 09:23:13;;;;;;;10.88;4.15;;;;;;;6.98;22.72;100864.13;4477576;32;34595;-74
2022/03/11 09:25:41;;;;;;;8.10;3.58;;;;;;;6.46;22.82;100867.78;4469531;32;34996;-75
2022/03/11 09:28:10;;;;;;;6.37;3.60;;;;;;;7.18;22.20;100861.22;4469792;32;35156;-75
2022/03/11 09:30:39;;;;;;;6.68;3.62;;;;;;;6.79;21.90;100867.03;4463744;32;257362;-75
2022/03/11 09:33:06;;;;;;;8.23;3.78;;;;;;;7.66;22.36;100860.78;4469722;32;33969;-75
2022/03/11 09:35:34;;;;;;;5.28;2.90;;;;;;;7.97;21.32;100852.03;4469439;32;35862;-75
2022/03/11 09:38:02;;;;;;;6.75;3.75;;;;;;;8.70;21.40;100853.69;4469888;32;34441;-75
2022/03/11 09:40:32;;;;;;;13.90;3.22;;;;;;;7.90;20.95;100851.84;4470694;32;34129;-76
2022/03/11 09:43:00;;;;;;;5.22;2.97;;;;;;;7.82;21.02;100850.78;4485474;32;34191;-75
2022/03/11 09:45:29;;;;;;;7.43;3.47;;;;;;;7.45;22.46;100847.25;4484414;32;36232;-75
2022/03/11 09:47:57;;;;;;;7.55;4.03;;;;;;;8.52;20.93;100844.69;4471572;32;34430;-75
2022/03/11 09:50:29;;;;;;;7.45;3.62;;;;;;;8.77;20.99;100847.81;4470428;32;33542;-75
2022/03/11 09:52:57;;;;;;;4.57;2.97;;;;;;;7.11;21.62;100841.16;4485574;32;34018;-76
2022/03/11 09:55:25;;;;;;;6.22;3.37;;;;;;;8.67;20.73;100840.66;4483200;32;35843;-75
2022/03/11 09:57:55;;;;;;;7.05;3.33;;;;;;;9.25;19.74;100830.56;4472108;32;34331;-76
2022/03/11 10:00:23;;;;;;;6.18;3.15;;;;;;;9.60;19.21;100831.19;4476865;32;33652;-77
2022/03/11 10:02:56;;;;;;;8.23;3.65;;;;;;;9.03;19.59;100837.91;4456319;32;33863;-76
2022/03/11 10:05:24;;;;;;;8.10;3.60;;;;;;;9.06;19.62;100829.31;4469107;32;35816;-78
2022/03/11 10:08:04;;;;;;;7.68;3.50;;;;;;;10.57;18.18;100832.69;4455388;32;34422;-76
2022/03/11 10:10:33;;;;;;;6.82;3.58;;;;;;;10.69;17.60;100838.91;4479663;32;33569;-77
2022/03/11 10:13:08;;;;;;;10.05;4.40;;;;;;;10.84;17.62;100840.84;4485067;32;33896;-76
2022/03/11 10:15:39;;;;;;;9.30;4.18;;;;;;;10.31;18.07;100834.94;4447926;32;34164;-75
2022/03/11 10:18:14;;;;;;;7.47;3.60;;;;;;;9.90;19.52;100827.34;4458303;32;35192;-76
2022/03/11 10:20:42;;;;;;;6.55;3.30;;;;;;;9.10;19.72;100829.38;4461995;32;34273;-75
2022/03/11 10:23:13;;;;;;;6.30;3.72;;;;;;;9.40;19.64;100832.53;4470736;32;34887;-76
2022/03/11 10:25:41;;;;;;;6.90;3.97;;;;;;;10.74;18.43;100830.28;4466611;32;34920;-75
2022/03/11 10:28:12;;;;;;;11.73;3.70;;;;;;;11.70;17.29;100820.84;4457363;32;34556;-77
2022/03/11 10:30:42;;;;;;;6.97;3.15;;;;;;;11.21;17.56;100816.06;4468013;32;33479;-76
2022/03/11 10:33:14;;;;;;;7.15;3.40;;;;;;;11.13;16.92;100815.09;4472814;32;33244;-79
2022/03/11 10:35:47;;;;;;;6.93;3.47;;;;;;;11.30;16.99;100815.28;4471353;32;35997;-76
2022/03/11 10:38:19;;;;;;;4.62;2.60;;;;;;;12.21;16.70;100819.53;4472962;32;35205;-76
2022/03/11 10:40:52;;;;;;;7.07;3.22;;;;;;;10.68;17.65;100809.38;4471754;32;34300;-77
2022/03/11 10:43:27;;;;;;;11.90;3.97;;;;;;;11.38;17.25;100814.50;4470102;32;34245;-76
2022/03/11 10:45:57;;;;;;;8.50;3.83;;;;;;;10.49;17.73;100804.78;4457041;32;34916;-75
2022/03/11 10:48:43;;;;;;;6.47;3.12;;;;;;;10.75;19.43;100806.00;4471155;32;34300;-78
2022/03/11 10:51:12;;;;;;;6.35;3.45;;;;;;;11.95;16.41;100801.94;4484763;32;34490;-76
2022/03/11 10:53:41;;;;;;;8.63;3.65;;;;;;;12.60;16.55;100798.81;4472861;32;33927;-75
2022/03/11 10:56:09;;;;;;;7.07;3.42;;;;;;;11.04;17.31;100789.81;4471939;32;35089;-78
2022/03/11 10:58:38;;;;;;;10.85;3.45;;;;;;;11.55;16.35;100792.91;4457078;32;35205;-75
2022/03/11 11:01:06;;;;;;;9.20;3.62;;;;;;;11.42;16.13;100789.31;4469392;32;35014;-76
2022/03/11 11:03:35;;;;;;;6.10;3.22;;;;;;;11.80;16.04;100785.28;4471061;32;34048;-76
2022/03/11 11:06:03;;;;;;;6.43;3.35;;;;;;;12.36;15.74;100778.72;4456873;32;35098;-76
2022/03/11 11:08:33;;;;;;;7.87;3.70;;;;;;;10.70;18.72;100770.31;4470948;32;34418;-75
2022/03/11 11:11:01;;;;;;;7.15;3.85;;;;;;;11.53;17.32;100769.41;4456605;32;33561;-77
2022/03/11 11:13:28;;;;;;;15.60;4.12;;;;;;;13.66;14.99;100759.84;4470902;32;34703;-76
2022/03/11 11:16:00;;;;;;;8.23;4.30;;;;;;;11.97;16.09;100762.81;4458483;32;35870;-75
2022/03/11 11:18:29;;;;;;;7.47;3.70;;;;;;;12.90;16.02;100764.12;4470355;32;34494;-79
2022/03/11 11:20:58;;;;;;;5.87;3.40;;;;;;;13.51;14.82;100763.34;4459237;32;31784;-76
2022/03/11 11:23:26;;;;;;;5.55;3.20;;;;;;;13.23;15.16;100767.62;4456968;32;33857;-76
2022/03/11 11:25:56;;;;;;;5.70;3.30;;;;;;;12.54;15.37;100768.31;4455545;32;34953;-76
2022/03/11 11:28:29;;;;;;;8.82;3.83;;;;;;;13.25;14.87;100752.81;4457474;32;35195;-77
2022/03/11 11:30:58;;;;;;;18.42;7.70;;;;;;;10.56;16.60;100751.91;4467868;32;32024;-76
2022/03/11 11:33:25;;;;;;;6.10;3.25;;;;;;;12.93;16.25;100748.41;4472399;32;33949;-76